createdAt,value
2018-11-14T00:02:15.869Z,10.37
2018-11-14T00:13:38.741Z,13.03
2018-11-14T00:16:09.427Z,10.20
2018-11-14T00:18:39.548Z,12.80
2018-11-14T00:21:09.657Z,11.77
2018-11-14T00:23:40.030Z,13.93
2018-11-14T00:26:10.298Z,12.80
2018-11-14T00:28:40.459Z,14.93
2018-11-14T00:31:11.009Z,11.50
2018-11-14T00:33:42.455Z,11.37
2018-11-14T00:36:13.248Z,11.20
2018-11-14T00:38:43.594Z,13.10
2018-11-14T00:41:14.888Z,15.80
2018-11-14T00:43:45.798Z,11.93
2018-11-14T00:46:16.872Z,13.90
2018-11-14T00:48:48.884Z,11.63
2018-11-14T00:51:19.756Z,10.77
2018-11-14T00:53:49.846Z,12.50
2018-11-14T00:56:20.194Z,13.80
2018-11-14T00:58:50.946Z,11.67
2018-11-14T01:01:21.303Z,13.03
2018-11-14T01:03:52.302Z,11.57
2018-11-14T01:06:24.146Z,11.60
2018-11-14T01:08:54.172Z,14.27
2018-11-14T01:11:25.554Z,15.93
2018-11-14T01:13:55.881Z,14.60
2018-11-14T01:16:26.050Z,12.57
2018-11-14T01:18:56.305Z,10.43
2018-11-14T01:21:26.571Z,13.57
2018-11-14T01:23:57.112Z,13.47
2018-11-14T01:26:27.944Z,14.67
2018-11-14T01:28:58.287Z,13.13
2018-11-14T01:31:28.258Z,13.73
2018-11-14T01:33:58.399Z,13.27
2018-11-14T01:36:28.899Z,12.00
2018-11-14T01:39:00.389Z,12.20
2018-11-14T01:41:30.296Z,15.97
2018-11-14T01:44:00.435Z,16.63
2018-11-14T01:46:30.813Z,18.00
2018-11-14T01:49:01.755Z,13.37
2018-11-14T01:51:31.751Z,16.03
2018-11-14T01:54:01.986Z,14.50
2018-11-14T01:56:33.624Z,14.03
2018-11-14T01:59:03.859Z,15.97
2018-11-14T02:01:33.843Z,17.67
2018-11-14T02:04:03.751Z,10.83
2018-11-14T02:06:33.791Z,13.67
2018-11-14T02:09:04.364Z,16.20
2018-11-14T02:11:35.127Z,14.53
2018-11-14T02:14:06.093Z,12.33
2018-11-14T02:16:36.028Z,13.00
2018-11-14T02:19:06.573Z,13.77
2018-11-14T02:21:36.735Z,13.07
2018-11-14T02:24:06.955Z,13.13
2018-11-14T02:26:37.115Z,13.57
2018-11-14T02:29:07.416Z,12.60
2018-11-14T02:31:37.492Z,11.40
2018-11-14T02:34:08.212Z,13.93
2018-11-14T02:36:38.679Z,13.83
2018-11-14T02:39:08.948Z,14.40
2018-11-14T02:41:39.437Z,14.03
2018-11-14T02:44:10.073Z,17.07
2018-11-14T02:46:40.429Z,17.90
2018-11-14T02:49:12.186Z,13.47
2018-11-14T02:51:43.165Z,16.73
2018-11-14T02:54:14.667Z,16.10
2018-11-14T02:56:44.812Z,14.77
2018-11-14T02:59:15.060Z,15.27
2018-11-14T03:01:46.115Z,16.00
2018-11-14T03:04:16.500Z,14.30
2018-11-14T03:06:46.772Z,15.07
2018-11-14T03:09:16.878Z,14.13
2018-11-14T03:11:47.249Z,16.70
2018-11-14T03:14:17.474Z,18.17
2018-11-14T03:16:47.912Z,18.10
2018-11-14T03:19:18.757Z,15.50
2018-11-14T03:21:49.684Z,14.47
2018-11-14T03:24:19.751Z,18.87
2018-11-14T03:26:51.000Z,18.13
2018-11-14T03:29:22.053Z,18.30
2018-11-14T03:31:53.018Z,15.50
2018-11-14T03:34:23.328Z,12.33
2018-11-14T03:36:53.517Z,16.27
2018-11-14T03:39:23.850Z,14.33
2018-11-14T03:41:54.009Z,15.30
2018-11-14T03:44:24.079Z,15.43
2018-11-14T03:46:54.572Z,17.77
2018-11-14T03:49:25.014Z,18.77
2018-11-14T03:51:55.091Z,16.93
2018-11-14T03:54:25.188Z,16.30
2018-11-14T03:56:55.801Z,18.00
2018-11-14T03:59:27.142Z,16.37
2018-11-14T04:01:58.024Z,12.10
2018-11-14T04:04:28.393Z,15.50
2018-11-14T04:06:58.623Z,19.93
2018-11-14T04:09:28.770Z,17.47
2018-11-14T04:11:58.727Z,21.03
2018-11-14T04:14:30.357Z,21.00
2018-11-14T04:17:03.239Z,16.30
2018-11-14T04:19:33.510Z,16.20
2018-11-14T04:22:03.628Z,20.83
2018-11-14T04:24:33.719Z,16.27
2018-11-14T04:27:03.803Z,17.67
2018-11-14T04:29:34.962Z,17.73
2018-11-14T04:32:05.653Z,17.23
2018-11-14T04:34:36.112Z,20.80
2018-11-14T04:37:06.495Z,20.63
2018-11-14T04:39:36.585Z,16.73
2018-11-14T04:42:06.633Z,15.97
2018-11-14T04:44:37.263Z,19.00
2018-11-14T04:47:07.599Z,15.10
2018-11-14T04:49:37.952Z,19.03
2018-11-14T04:52:08.193Z,16.83
2018-11-14T04:54:38.246Z,14.27
2018-11-14T04:57:08.534Z,18.17
2018-11-14T04:59:38.874Z,17.20
2018-11-14T05:02:09.759Z,22.30
2018-11-14T05:04:40.435Z,15.17
2018-11-14T05:07:11.300Z,19.83
2018-11-14T05:09:41.558Z,20.93
2018-11-14T05:12:11.793Z,19.13
2018-11-14T05:14:42.286Z,16.43
2018-11-14T05:17:13.458Z,18.63
2018-11-14T05:19:43.742Z,15.47
2018-11-14T05:22:14.578Z,22.00
2018-11-14T05:24:45.050Z,18.90
2018-11-14T05:27:15.352Z,16.47
2018-11-14T05:29:45.762Z,18.27
2018-11-14T05:32:16.179Z,18.37
2018-11-14T05:34:46.346Z,18.97
2018-11-14T05:37:16.689Z,18.37
2018-11-14T05:39:46.943Z,22.90
2018-11-14T05:42:17.180Z,18.10
2018-11-14T05:44:47.913Z,21.03
2018-11-14T05:47:18.748Z,18.50
2018-11-14T05:49:49.848Z,24.47
2018-11-14T05:52:20.180Z,22.43
2018-11-14T05:54:50.615Z,20.60
2018-11-14T05:57:20.873Z,24.30
2018-11-14T05:59:51.326Z,25.83
2018-11-14T06:02:21.895Z,30.87
2018-11-14T06:04:53.089Z,45.07
2018-11-14T06:07:23.706Z,38.37
2018-11-14T06:09:54.153Z,36.83
2018-11-14T06:12:24.463Z,24.53
2018-11-14T06:14:54.387Z,22.80
2018-11-14T06:17:24.448Z,23.07
2018-11-14T06:19:55.617Z,20.67
2018-11-14T06:22:26.871Z,23.77
2018-11-14T06:25:06.862Z,23.00
2018-11-14T06:27:37.275Z,20.77
2018-11-14T06:30:08.391Z,21.63
2018-11-14T06:32:39.562Z,23.90
2018-11-14T06:35:10.302Z,24.00
2018-11-14T06:37:40.461Z,22.30
2018-11-14T06:40:12.573Z,20.63
2018-11-14T06:42:43.038Z,19.43
2018-11-14T06:45:14.945Z,20.37
2018-11-14T06:47:46.677Z,20.20
2018-11-14T06:50:17.023Z,21.27
2018-11-14T06:52:48.561Z,21.73
2018-11-14T06:55:21.423Z,26.77
2018-11-14T06:57:52.805Z,25.40
2018-11-14T07:00:25.889Z,21.00
2018-11-14T07:02:56.957Z,29.73
2018-11-14T07:05:27.491Z,28.57
2018-11-14T07:07:57.909Z,28.20
2018-11-14T07:10:30.192Z,26.87
2018-11-14T07:13:05.657Z,25.53
2018-11-14T07:15:37.739Z,27.97
2018-11-14T07:18:09.115Z,21.80
2018-11-14T07:20:40.771Z,22.87
2018-11-14T07:23:11.607Z,22.37
2018-11-14T07:25:42.156Z,23.90
2018-11-14T07:28:12.617Z,24.90
2018-11-14T07:30:43.055Z,23.47
2018-11-14T07:33:13.587Z,23.57
2018-11-14T07:35:44.016Z,23.07
2018-11-14T07:38:34.717Z,26.00
2018-11-14T07:41:06.470Z,21.87
2018-11-14T07:43:37.520Z,26.27
2018-11-14T07:46:08.420Z,28.13
2018-11-14T07:48:39.743Z,28.90
2018-11-14T07:51:09.986Z,22.83
2018-11-14T07:53:40.174Z,24.37
2018-11-14T07:56:10.454Z,21.70
2018-11-14T07:58:40.726Z,23.03
2018-11-14T08:01:11.182Z,21.70
2018-11-14T08:03:41.372Z,23.30
2018-11-14T08:06:11.354Z,23.10
2018-11-14T08:08:42.169Z,19.37
2018-11-14T08:11:13.494Z,17.70
2018-11-14T08:13:44.910Z,24.30
2018-11-14T08:16:15.734Z,23.10
2018-11-14T08:18:46.021Z,25.20
2018-11-14T08:21:16.250Z,24.90
2018-11-14T08:23:46.838Z,20.97
2018-11-14T08:26:17.586Z,21.80
2018-11-14T08:28:48.405Z,22.17
2018-11-14T08:31:18.730Z,15.97
2018-11-14T08:33:49.622Z,20.60
2018-11-14T08:36:20.513Z,18.17
2018-11-14T08:38:51.601Z,19.13
2018-11-14T08:41:21.682Z,15.00
2018-11-14T08:43:52.815Z,15.80
2018-11-14T08:46:23.598Z,20.10
2018-11-14T08:48:53.806Z,14.60
2018-11-14T08:51:24.364Z,15.90
2018-11-14T08:53:54.556Z,16.30
2018-11-14T08:56:24.775Z,15.43
2018-11-14T08:58:55.723Z,15.10
2018-11-14T09:01:26.111Z,13.83
2018-11-14T09:03:56.948Z,15.00
2018-11-14T09:06:27.981Z,13.20
2018-11-14T09:08:57.980Z,13.63
2018-11-14T09:11:28.376Z,18.37
2018-11-14T09:13:58.673Z,13.47
2018-11-14T09:16:29.271Z,12.17
2018-11-14T09:18:59.315Z,11.17
2018-11-14T09:21:29.894Z,14.50
2018-11-14T09:24:00.607Z,9.90
2018-11-14T09:26:31.321Z,12.13
2018-11-14T09:29:02.207Z,14.90
2018-11-14T09:31:33.006Z,13.53
2018-11-14T09:34:03.401Z,14.07
2018-11-14T09:36:34.129Z,11.63
2018-11-14T09:39:05.385Z,12.33
2018-11-14T09:41:35.922Z,10.10
2018-11-14T09:44:06.715Z,13.60
2018-11-14T09:46:37.413Z,11.33
2018-11-14T09:49:07.546Z,9.37
2018-11-14T09:51:37.689Z,11.63
2018-11-14T09:54:08.186Z,11.47
2018-11-14T09:56:38.389Z,7.57
2018-11-14T09:59:09.246Z,9.77
2018-11-14T10:01:40.482Z,9.40
2018-11-14T10:04:11.120Z,12.93
2018-11-14T10:06:41.587Z,16.67
2018-11-14T10:09:14.035Z,21.57
2018-11-14T10:11:44.658Z,23.93
2018-11-14T10:14:15.466Z,12.77
2018-11-14T10:16:46.025Z,30.17
2018-11-14T10:19:16.572Z,21.87
2018-11-14T10:21:46.576Z,15.97
2018-11-14T10:24:17.150Z,16.93
2018-11-14T10:26:47.562Z,15.43
2018-11-14T10:29:18.172Z,26.87
2018-11-14T10:31:49.776Z,16.97
2018-11-14T10:34:20.092Z,12.30
2018-11-14T10:36:51.815Z,15.50
2018-11-14T10:39:22.379Z,13.80
2018-11-14T10:41:53.075Z,13.80
2018-11-14T10:44:23.987Z,17.47
2018-11-14T10:46:54.380Z,21.17
2018-11-14T10:49:25.464Z,13.00
2018-11-14T10:51:55.571Z,17.23
2018-11-14T10:54:26.129Z,13.80
2018-11-14T10:56:56.561Z,11.37
2018-11-14T10:59:27.597Z,14.93
2018-11-14T11:02:02.997Z,11.37
2018-11-14T11:06:03.633Z,9.13
2018-11-14T11:08:39.178Z,10.10
2018-11-14T11:11:15.358Z,7.60
2018-11-14T11:14:16.844Z,10.83
2018-11-14T11:16:52.316Z,9.93
2018-11-14T11:19:24.914Z,10.53
2018-11-14T11:21:55.289Z,7.77
2018-11-14T11:24:26.006Z,8.00
2018-11-14T11:26:56.305Z,15.33
2018-11-14T11:29:26.836Z,9.40
2018-11-14T11:31:57.800Z,13.37
2018-11-14T11:34:27.957Z,36.50
2018-11-14T11:36:58.330Z,12.97
2018-11-14T11:39:28.825Z,8.33
2018-11-14T11:41:59.203Z,10.87
2018-11-14T11:44:30.455Z,13.50
2018-11-14T11:47:00.744Z,19.53
2018-11-14T11:49:31.660Z,14.27
2018-11-14T11:52:03.092Z,9.63
2018-11-14T11:54:33.917Z,9.47
2018-11-14T11:57:03.916Z,17.93
2018-11-14T11:59:34.062Z,15.80
2018-11-14T12:02:04.454Z,12.33
2018-11-14T12:04:34.660Z,8.07
2018-11-14T12:07:05.458Z,6.73
2018-11-14T12:09:35.799Z,11.83
2018-11-14T12:12:07.161Z,24.50
2018-11-14T12:14:38.064Z,12.17
2018-11-14T12:17:08.314Z,7.77
2018-11-14T12:19:38.780Z,20.57
2018-11-14T12:22:09.200Z,14.87
2018-11-14T12:24:39.625Z,6.43
2018-11-14T12:27:09.736Z,10.30
2018-11-14T12:29:40.128Z,18.17
2018-11-14T12:32:11.114Z,5.20
2018-11-14T12:34:42.514Z,5.50
2018-11-14T12:37:13.048Z,20.33
2018-11-14T12:39:43.222Z,9.97
2018-11-14T12:42:13.610Z,6.63
2018-11-14T12:44:44.637Z,9.60
2018-11-14T12:47:15.091Z,11.20
2018-11-14T12:49:45.615Z,12.93
2018-11-14T12:52:16.555Z,3.97
2018-11-14T12:54:47.809Z,5.57
2018-11-14T12:57:18.271Z,9.50
2018-11-14T12:59:49.062Z,9.47
2018-11-14T13:02:19.705Z,9.23
2018-11-14T13:04:49.980Z,12.57
2018-11-14T13:07:20.692Z,19.97
2018-11-14T13:09:51.038Z,14.40
2018-11-14T13:12:21.378Z,5.23
2018-11-14T13:14:51.673Z,7.37
2018-11-14T13:17:22.083Z,4.67
2018-11-14T13:19:53.828Z,11.07
2018-11-14T13:22:24.911Z,4.43
2018-11-14T13:24:55.372Z,5.07
2018-11-14T13:27:25.682Z,5.90
2018-11-14T13:29:56.532Z,6.20
2018-11-14T13:32:27.207Z,5.00
2018-11-14T13:34:57.911Z,7.67
2018-11-14T13:37:28.348Z,4.53
2018-11-14T13:39:58.694Z,6.70
2018-11-14T13:42:29.962Z,4.20
2018-11-14T13:45:00.331Z,6.60
2018-11-14T13:47:30.918Z,5.90
2018-11-14T13:50:01.496Z,6.93
2018-11-14T13:52:32.687Z,4.97
2018-11-14T13:55:02.995Z,3.13
2018-11-14T13:57:33.095Z,5.50
2018-11-14T14:00:03.737Z,6.13
2018-11-14T14:02:35.105Z,5.60
2018-11-14T14:05:07.692Z,5.70
2018-11-14T14:07:37.944Z,4.13
2018-11-14T14:10:09.763Z,7.07
2018-11-14T14:12:41.684Z,6.90
2018-11-14T14:15:14.434Z,4.47
2018-11-14T14:17:46.197Z,5.97
2018-11-14T14:20:17.526Z,6.97
2018-11-14T14:22:48.289Z,5.50
2018-11-14T14:25:20.256Z,4.33
2018-11-14T14:27:50.703Z,6.33
2018-11-14T14:30:22.202Z,5.77
2018-11-14T14:32:52.549Z,7.37
2018-11-14T14:35:23.950Z,6.03
2018-11-14T14:37:54.245Z,8.23
2018-11-14T14:40:24.651Z,8.07
2018-11-14T14:42:55.152Z,9.13
2018-11-14T14:45:26.355Z,6.33
2018-11-14T14:47:56.657Z,6.53
2018-11-14T14:50:26.936Z,6.20
2018-11-14T14:52:57.115Z,8.10
2018-11-14T14:55:28.224Z,4.43
2018-11-14T14:57:58.540Z,5.03
2018-11-14T15:00:29.490Z,5.60
2018-11-14T15:02:59.726Z,5.87
2018-11-14T15:05:30.088Z,8.83
2018-11-14T15:08:00.762Z,4.03
2018-11-14T15:10:31.128Z,7.37
2018-11-14T15:13:01.605Z,4.57
2018-11-14T15:15:32.031Z,7.97
2018-11-14T15:18:02.355Z,4.27
2018-11-14T15:20:32.410Z,6.83
2018-11-14T15:23:02.942Z,5.73
2018-11-14T15:25:33.254Z,6.70
2018-11-14T15:28:05.331Z,5.73
2018-11-14T15:30:35.381Z,6.60
2018-11-14T15:33:06.094Z,4.13
2018-11-14T15:35:37.144Z,4.53
2018-11-14T15:38:08.145Z,5.87
2018-11-14T15:40:39.189Z,6.13
2018-11-14T15:43:09.791Z,9.77
2018-11-14T15:45:40.118Z,5.30
2018-11-14T15:48:10.195Z,6.57
2018-11-14T15:50:40.575Z,7.53
2018-11-14T15:53:11.122Z,6.00
2018-11-14T15:55:41.396Z,5.60
2018-11-14T15:58:12.906Z,4.10
2018-11-14T16:00:43.249Z,8.53
2018-11-14T16:03:13.953Z,10.63
2018-11-14T16:05:45.441Z,11.40
2018-11-14T16:08:16.411Z,8.03
2018-11-14T16:10:46.338Z,8.10
2018-11-14T16:13:16.807Z,7.77
2018-11-14T16:15:47.234Z,7.23
2018-11-14T16:18:17.633Z,10.23
2018-11-14T16:20:47.893Z,8.33
2018-11-14T16:23:18.019Z,8.07
2018-11-14T16:25:48.104Z,10.63
2018-11-14T16:28:18.358Z,8.13
2018-11-14T16:30:49.277Z,7.63
2018-11-14T16:33:20.426Z,8.63
2018-11-14T16:35:50.590Z,9.23
2018-11-14T16:38:20.925Z,9.70
2018-11-14T16:40:50.894Z,8.47
2018-11-14T16:43:22.155Z,6.80
2018-11-14T16:45:52.549Z,7.87
2018-11-14T16:48:22.710Z,9.50
2018-11-14T16:50:52.866Z,9.47
2018-11-14T16:53:23.106Z,10.67
2018-11-14T16:55:53.555Z,7.77
2018-11-14T16:58:23.926Z,11.73
2018-11-14T17:00:53.854Z,9.53
2018-11-14T17:03:25.643Z,9.03
2018-11-14T17:05:55.734Z,8.57
2018-11-14T17:08:27.468Z,10.37
2018-11-14T17:10:59.031Z,14.33
2018-11-14T17:13:29.235Z,9.70
2018-11-14T17:16:01.086Z,10.03
2018-11-14T17:18:31.374Z,9.27
2018-11-14T17:21:01.674Z,9.57
2018-11-14T17:23:31.588Z,8.47
2018-11-14T17:26:02.262Z,7.30
2018-11-14T17:28:32.358Z,7.93
2018-11-14T17:31:03.694Z,9.83
2018-11-14T17:33:34.059Z,8.87
2018-11-14T17:36:05.645Z,10.70
2018-11-14T17:38:36.755Z,8.03
2018-11-14T17:41:07.225Z,8.07
2018-11-14T17:43:38.617Z,11.93
2018-11-14T17:46:11.173Z,11.87
2018-11-14T17:48:43.481Z,9.17
2018-11-14T17:51:14.939Z,10.00
2018-11-14T17:53:47.882Z,8.77
2018-11-14T17:56:19.748Z,8.10
2018-11-14T17:58:50.568Z,8.53
2018-11-14T18:01:21.675Z,10.83
2018-11-14T18:03:51.828Z,8.47
2018-11-14T18:06:22.431Z,7.90
2018-11-14T18:08:52.427Z,7.47
2018-11-14T18:11:22.910Z,9.37
2018-11-14T18:13:53.162Z,7.47
2018-11-14T18:16:23.742Z,8.40
2018-11-14T18:18:53.906Z,7.17
2018-11-14T18:21:24.152Z,7.70
2018-11-14T18:23:55.197Z,6.90
2018-11-14T18:26:25.576Z,6.83
2018-11-14T18:28:56.165Z,6.73
2018-11-14T18:31:26.342Z,8.80
2018-11-14T18:33:56.431Z,9.23
2018-11-14T18:36:26.741Z,7.77
2018-11-14T18:38:56.925Z,11.33
2018-11-14T18:41:27.188Z,8.47
2018-11-14T18:43:57.386Z,8.03
2018-11-14T18:46:27.804Z,7.63
2018-11-14T18:48:59.645Z,7.50
2018-11-14T18:51:29.758Z,11.50
2018-11-14T18:53:59.894Z,8.03
2018-11-14T18:56:30.180Z,10.57
2018-11-14T18:59:00.738Z,7.10
2018-11-14T19:01:31.360Z,12.30
2018-11-14T19:04:01.424Z,9.70
2018-11-14T19:06:32.279Z,9.90
2018-11-14T19:09:02.341Z,8.83
2018-11-14T19:11:32.771Z,10.27
2018-11-14T19:14:02.945Z,9.17
2018-11-14T19:16:33.031Z,7.93
2018-11-14T19:19:03.324Z,9.57
2018-11-14T19:21:33.466Z,7.50
2018-11-14T19:24:04.547Z,8.20
2018-11-14T19:26:35.654Z,7.70
2018-11-14T19:29:06.160Z,9.63
2018-11-14T19:31:36.432Z,13.50
2018-11-14T19:34:06.431Z,11.93
2018-11-14T19:36:37.145Z,11.13
2018-11-14T19:39:11.090Z,8.33
2018-11-14T19:41:43.139Z,9.70
2018-11-14T19:44:13.568Z,8.17
2018-11-14T19:46:43.917Z,10.67
2018-11-14T19:49:14.418Z,9.80
2018-11-14T19:51:44.667Z,8.47
2018-11-14T19:54:15.005Z,12.43
2018-11-14T19:56:45.396Z,10.80
2018-11-14T19:59:16.453Z,12.73
2018-11-14T20:01:46.717Z,9.20
2018-11-14T20:04:17.213Z,9.70
2018-11-14T20:06:47.570Z,11.07
2018-11-14T20:09:18.042Z,11.17
2018-11-14T20:11:49.317Z,9.23
2018-11-14T20:14:19.825Z,12.57
2018-11-14T20:16:50.150Z,10.37
2018-11-14T20:19:20.292Z,9.67
2018-11-14T20:21:50.275Z,11.37
2018-11-14T20:24:21.336Z,10.57
2018-11-14T20:26:52.100Z,10.67
2018-11-14T20:29:22.692Z,10.13
2018-11-14T20:31:53.141Z,12.53
2018-11-14T20:34:23.630Z,11.50
2018-11-14T20:36:53.806Z,14.10
2018-11-14T20:39:24.159Z,10.93
2018-11-14T20:41:55.514Z,12.40
2018-11-14T20:44:25.706Z,13.83
2018-11-14T20:46:56.042Z,9.40
2018-11-14T20:49:26.051Z,10.27
2018-11-14T20:51:56.173Z,9.60
2018-11-14T20:54:27.126Z,14.57
2018-11-14T20:56:58.075Z,15.33
2018-11-14T20:59:29.179Z,12.43
2018-11-14T21:02:00.853Z,13.43
2018-11-14T21:04:30.879Z,11.77
2018-11-14T21:07:01.402Z,11.37
2018-11-14T21:09:34.229Z,10.83
2018-11-14T21:12:04.325Z,10.73
2018-11-14T21:14:34.516Z,11.17
2018-11-14T21:17:04.801Z,12.87
2018-11-14T21:19:35.347Z,12.57
2018-11-14T21:22:05.604Z,10.40
2018-11-14T21:24:36.823Z,14.03
2018-11-14T21:27:07.909Z,11.90
2018-11-14T21:29:38.577Z,11.97
2018-11-14T21:32:08.829Z,15.00
2018-11-14T21:34:39.277Z,12.00
2018-11-14T21:37:09.662Z,13.23
2018-11-14T21:39:39.850Z,12.27
2018-11-14T21:42:10.164Z,11.07
2018-11-14T21:44:40.406Z,14.03
2018-11-14T21:47:10.474Z,13.07
2018-11-14T21:49:41.456Z,14.83
2018-11-14T21:52:11.891Z,13.33
2018-11-14T21:54:42.148Z,13.73
2018-11-14T21:57:12.204Z,15.70
2018-11-14T21:59:42.497Z,12.83
2018-11-14T22:02:13.369Z,11.07
2018-11-14T22:04:43.681Z,12.30
2018-11-14T22:07:14.477Z,16.37
2018-11-14T22:09:45.338Z,11.63
2018-11-14T22:12:16.867Z,12.53
2018-11-14T22:14:46.939Z,13.83
2018-11-14T22:17:16.977Z,13.60
2018-11-14T22:19:47.507Z,13.77
2018-11-14T22:22:17.952Z,13.33
2018-11-14T22:24:48.116Z,15.57
2018-11-14T22:27:18.449Z,13.77
2018-11-14T22:29:48.826Z,15.63
2018-11-14T22:32:19.189Z,13.60
2018-11-14T22:34:49.260Z,11.97
2018-11-14T22:37:19.705Z,14.90
2018-11-14T22:39:49.901Z,18.83
2018-11-14T22:42:21.401Z,13.83
2018-11-14T22:44:53.603Z,12.73
2018-11-14T22:47:23.864Z,13.60
2018-11-14T22:49:54.981Z,17.10
2018-11-14T22:52:25.367Z,14.97
2018-11-14T22:54:55.776Z,14.07
2018-11-14T22:57:26.147Z,14.80
2018-11-14T22:59:56.300Z,17.43
2018-11-14T23:02:26.640Z,16.57
2018-11-14T23:04:56.978Z,15.63
2018-11-14T23:07:27.306Z,14.83
2018-11-14T23:09:58.683Z,13.67
2018-11-14T23:12:29.370Z,14.70
2018-11-14T23:14:59.817Z,14.60
2018-11-14T23:17:30.176Z,15.80
2018-11-14T23:20:00.191Z,13.80
2018-11-14T23:22:30.335Z,14.77
2018-11-14T23:25:00.380Z,11.73
2018-11-14T23:27:30.607Z,17.00
2018-11-14T23:30:01.463Z,12.67
2018-11-14T23:32:31.698Z,13.20
2018-11-14T23:35:06.945Z,16.00
2018-11-14T23:37:37.190Z,15.87
2018-11-14T23:40:07.969Z,11.93
2018-11-14T23:42:38.175Z,12.23
2018-11-14T23:45:11.642Z,14.27
2018-11-14T23:47:42.621Z,13.43
2018-11-14T23:50:15.782Z,14.00
2018-11-14T23:52:47.482Z,13.23
2018-11-14T23:55:18.910Z,17.70
2018-11-14T23:57:49.178Z,14.83
